createdAt,value
2022-11-17T00:00:03.489Z,962.81
2022-11-17T00:01:03.685Z,962.70
2022-11-17T00:02:03.942Z,962.64
2022-11-17T00:03:03.887Z,962.67
2022-11-17T00:04:02.956Z,962.67
2022-11-17T00:05:03.005Z,962.58
2022-11-17T00:06:03.039Z,962.81
2022-11-17T00:07:03.138Z,962.75
2022-11-17T00:08:03.004Z,962.64
2022-11-17T00:09:03.104Z,962.72
2022-11-17T00:10:03.099Z,962.64
2022-11-17T00:11:03.201Z,962.72
2022-11-17T00:12:03.076Z,962.55
2022-11-17T00:13:03.286Z,962.45
2022-11-17T00:14:03.295Z,962.49
2022-11-17T00:15:03.230Z,962.49
2022-11-17T00:16:03.434Z,962.39
2022-11-17T00:17:03.421Z,962.44
2022-11-17T00:18:03.634Z,962.47
2022-11-17T00:19:03.617Z,962.49
2022-11-17T00:20:03.749Z,962.49
2022-11-17T00:21:03.833Z,962.49
2022-11-17T00:22:03.783Z,962.47
2022-11-17T00:23:03.813Z,962.38
2022-11-17T00:24:02.945Z,962.35
2022-11-17T00:25:02.978Z,962.35
2022-11-17T00:26:03.097Z,962.32
2022-11-17T00:27:03.126Z,962.46
2022-11-17T00:28:03.109Z,962.43
2022-11-17T00:29:03.101Z,962.40
2022-11-17T00:30:03.180Z,962.38
2022-11-17T00:31:03.151Z,962.32
2022-11-17T00:32:03.410Z,962.23
2022-11-17T00:33:03.410Z,962.34
2022-11-17T00:34:03.359Z,962.10
2022-11-17T00:35:03.440Z,962.13
2022-11-17T00:36:03.617Z,962.15
2022-11-17T00:37:03.714Z,962.15
2022-11-17T00:38:03.811Z,962.28
2022-11-17T00:39:03.819Z,962.15
2022-11-17T00:40:03.910Z,962.18
2022-11-17T00:41:02.952Z,962.15
2022-11-17T00:42:02.976Z,962.15
2022-11-17T00:43:02.976Z,962.15
2022-11-17T00:44:03.070Z,962.17
2022-11-17T00:45:02.991Z,962.12
2022-11-17T00:46:03.036Z,962.17
2022-11-17T00:47:03.195Z,962.06
2022-11-17T00:48:03.397Z,962.11
2022-11-17T00:49:03.340Z,962.09
2022-11-17T00:50:03.319Z,962.00
2022-11-17T00:51:03.473Z,961.94
2022-11-17T00:52:03.666Z,961.89
2022-11-17T00:53:03.727Z,961.97
2022-11-17T00:54:02.996Z,962.03
2022-11-17T00:55:03.049Z,962.05
2022-11-17T00:56:03.013Z,961.91
2022-11-17T00:57:02.995Z,961.91
2022-11-17T00:58:03.158Z,961.80
2022-11-17T00:59:03.267Z,961.88
2022-11-17T01:00:03.424Z,961.88
2022-11-17T01:01:03.522Z,961.80
2022-11-17T01:02:03.493Z,961.91
2022-11-17T01:03:03.502Z,961.85
2022-11-17T01:04:04.306Z,961.96
2022-11-17T01:05:03.698Z,961.93
2022-11-17T01:06:03.622Z,961.88
2022-11-17T01:07:03.852Z,961.77
2022-11-17T01:08:03.746Z,961.82
2022-11-17T01:09:03.756Z,961.85
2022-11-17T01:10:04.017Z,961.79
2022-11-17T01:11:03.302Z,961.93
2022-11-17T01:12:03.301Z,961.93
2022-11-17T01:13:03.345Z,961.73
2022-11-17T01:14:03.329Z,961.96
2022-11-17T01:15:03.306Z,961.96
2022-11-17T01:16:03.385Z,961.96
2022-11-17T01:17:03.383Z,961.93
2022-11-17T01:18:03.611Z,962.04
2022-11-17T01:19:03.696Z,962.04
2022-11-17T01:20:03.774Z,961.93
2022-11-17T01:21:03.747Z,962.04
2022-11-17T01:22:03.817Z,961.93
2022-11-17T01:23:03.896Z,961.93
2022-11-17T01:24:03.885Z,961.98
2022-11-17T01:25:02.946Z,961.93
2022-11-17T01:26:03.068Z,961.98
2022-11-17T01:27:03.162Z,962.04
2022-11-17T01:28:03.191Z,961.87
2022-11-17T01:29:03.147Z,961.75
2022-11-17T01:30:03.212Z,961.89
2022-11-17T01:31:03.300Z,961.84
2022-11-17T01:32:03.309Z,961.81
2022-11-17T01:33:03.449Z,961.72
2022-11-17T01:34:03.615Z,961.72
2022-11-17T01:35:03.584Z,961.83
2022-11-17T01:36:03.609Z,961.69
2022-11-17T01:37:03.618Z,961.66
2022-11-17T01:38:03.577Z,961.66
2022-11-17T01:39:03.648Z,961.58
2022-11-17T01:40:03.739Z,961.60
2022-11-17T01:41:03.738Z,961.49
2022-11-17T01:42:03.915Z,961.55
2022-11-17T01:43:03.851Z,961.54
2022-11-17T01:44:03.866Z,961.60
2022-11-17T01:45:02.997Z,961.49
2022-11-17T01:46:02.949Z,961.48
2022-11-17T01:47:02.992Z,961.40
2022-11-17T01:48:03.208Z,961.54
2022-11-17T01:49:03.215Z,961.59
2022-11-17T01:50:03.089Z,961.59
2022-11-17T01:51:03.061Z,961.59
2022-11-17T01:52:03.058Z,961.59
2022-11-17T01:53:03.175Z,961.48
2022-11-17T01:54:03.086Z,961.54
2022-11-17T01:55:03.092Z,961.62
2022-11-17T01:56:03.217Z,961.62
2022-11-17T01:57:03.202Z,961.68
2022-11-17T01:58:03.312Z,961.81
2022-11-17T01:59:03.500Z,961.59
2022-11-17T02:00:03.380Z,961.65
2022-11-17T02:01:03.581Z,961.65
2022-11-17T02:02:03.700Z,961.45
2022-11-17T02:03:03.553Z,961.67
2022-11-17T02:04:03.578Z,961.47
2022-11-17T02:05:03.649Z,961.59
2022-11-17T02:06:03.625Z,961.56
2022-11-17T02:07:03.679Z,961.56
2022-11-17T02:08:03.770Z,961.64
2022-11-17T02:09:03.874Z,961.59
2022-11-17T02:10:02.933Z,961.53
2022-11-17T02:11:02.985Z,961.50
2022-11-17T02:12:03.134Z,961.50
2022-11-17T02:13:03.204Z,961.61
2022-11-17T02:14:03.241Z,961.53
2022-11-17T02:15:03.222Z,961.53
2022-11-17T02:16:03.306Z,961.47
2022-11-17T02:17:14.364Z,961.33
2022-11-17T02:18:03.523Z,961.30
2022-11-17T02:19:03.559Z,961.21
2022-11-17T02:20:03.516Z,961.33
2022-11-17T02:21:03.595Z,961.24
2022-11-17T02:22:03.635Z,961.21
2022-11-17T02:23:03.593Z,961.21
2022-11-17T02:24:03.676Z,961.24
2022-11-17T02:25:04.621Z,961.16
2022-11-17T02:26:03.635Z,961.21
2022-11-17T02:27:03.592Z,961.24
2022-11-17T02:28:03.574Z,961.16
2022-11-17T02:29:03.601Z,961.15
2022-11-17T02:30:03.576Z,961.30
2022-11-17T02:31:03.714Z,961.32
2022-11-17T02:32:03.759Z,961.10
2022-11-17T02:33:03.630Z,961.18
2022-11-17T02:34:03.707Z,961.10
2022-11-17T02:35:03.905Z,961.12
2022-11-17T02:36:03.064Z,961.15
2022-11-17T02:37:03.223Z,961.12
2022-11-17T02:38:03.338Z,961.21
2022-11-17T02:39:03.422Z,961.21
2022-11-17T02:40:03.472Z,961.18
2022-11-17T02:41:03.479Z,961.21
2022-11-17T02:42:03.640Z,961.15
2022-11-17T02:43:03.844Z,961.21
2022-11-17T02:44:03.979Z,961.07
2022-11-17T02:45:02.899Z,961.15
2022-11-17T02:46:03.560Z,961.15
2022-11-17T02:47:03.494Z,961.21
2022-11-17T02:48:03.638Z,961.18
2022-11-17T02:49:03.749Z,961.15
2022-11-17T02:50:03.870Z,961.32
2022-11-17T02:51:03.881Z,961.29
2022-11-17T02:52:03.850Z,961.15
2022-11-17T02:53:03.955Z,961.12
2022-11-17T02:54:03.885Z,961.12
2022-11-17T02:55:03.948Z,961.09
2022-11-17T02:56:03.893Z,961.03
2022-11-17T02:57:03.024Z,961.09
2022-11-17T02:58:03.734Z,961.03
2022-11-17T02:59:03.699Z,961.09
2022-11-17T03:00:03.772Z,961.06
2022-11-17T03:01:03.046Z,961.15
2022-11-17T03:02:03.168Z,961.09
2022-11-17T03:03:03.222Z,961.09
2022-11-17T03:04:03.261Z,960.95
2022-11-17T03:05:03.260Z,961.06
2022-11-17T03:06:03.292Z,961.06
2022-11-17T03:07:03.435Z,961.17
2022-11-17T03:08:03.371Z,961.03
2022-11-17T03:09:03.404Z,961.17
2022-11-17T03:10:03.562Z,961.26
2022-11-17T03:11:03.705Z,961.06
2022-11-17T03:12:03.796Z,961.09
2022-11-17T03:13:03.874Z,961.09
2022-11-17T03:14:03.803Z,961.06
2022-11-17T03:15:03.943Z,961.03
2022-11-17T03:16:03.936Z,960.95
2022-11-17T03:17:02.944Z,960.97
2022-11-17T03:18:03.245Z,961.03
2022-11-17T03:19:03.182Z,960.97
2022-11-17T03:20:03.238Z,960.97
2022-11-17T03:21:03.423Z,961.00
2022-11-17T03:22:03.504Z,961.09
2022-11-17T03:23:03.717Z,961.09
2022-11-17T03:24:03.754Z,961.03
2022-11-17T03:25:03.758Z,961.20
2022-11-17T03:26:02.934Z,961.06
2022-11-17T03:27:03.139Z,960.92
2022-11-17T03:28:03.074Z,960.97
2022-11-17T03:29:03.168Z,960.94
2022-11-17T03:30:03.359Z,960.83
2022-11-17T03:31:03.307Z,961.00
2022-11-17T03:32:03.558Z,960.94
2022-11-17T03:33:03.589Z,960.83
2022-11-17T03:34:03.792Z,960.89
2022-11-17T03:35:03.778Z,960.83
2022-11-17T03:36:02.921Z,960.92
2022-11-17T03:37:03.057Z,960.86
2022-11-17T03:38:03.069Z,960.80
2022-11-17T03:39:03.079Z,960.78
2022-11-17T03:40:03.107Z,960.78
2022-11-17T03:41:03.195Z,960.89
2022-11-17T03:42:03.708Z,960.86
2022-11-17T03:43:03.800Z,960.80
2022-11-17T03:44:02.930Z,960.86
2022-11-17T03:45:02.988Z,960.83
2022-11-17T03:46:03.064Z,960.86
2022-11-17T03:47:03.202Z,960.83
2022-11-17T03:48:03.325Z,960.76
2022-11-17T03:49:03.353Z,960.70
2022-11-17T03:50:03.384Z,960.65
2022-11-17T03:51:03.379Z,960.67
2022-11-17T03:52:03.594Z,960.65
2022-11-17T03:53:03.557Z,960.65
2022-11-17T03:54:03.687Z,960.65
2022-11-17T03:55:02.962Z,960.51
2022-11-17T03:56:03.074Z,960.59
2022-11-17T03:57:03.066Z,960.39
2022-11-17T03:58:03.154Z,960.48
2022-11-17T03:59:03.150Z,960.51
2022-11-17T04:00:03.251Z,960.40
2022-11-17T04:01:03.101Z,960.34
2022-11-17T04:02:03.240Z,960.32
2022-11-17T04:03:03.358Z,960.54
2022-11-17T04:04:03.314Z,960.37
2022-11-17T04:05:03.311Z,960.37
2022-11-17T04:06:03.327Z,960.32
2022-11-17T04:07:03.762Z,960.46
2022-11-17T04:08:03.616Z,960.49
2022-11-17T04:09:03.700Z,960.43
2022-11-17T04:10:03.719Z,960.43
2022-11-17T04:11:03.855Z,960.35
2022-11-17T04:12:03.906Z,960.37
2022-11-17T04:13:03.896Z,960.23
2022-11-17T04:14:03.052Z,960.18
2022-11-17T04:15:03.087Z,960.32
2022-11-17T04:16:03.053Z,960.38
2022-11-17T04:17:03.123Z,960.41
2022-11-17T04:18:03.213Z,960.27
2022-11-17T04:19:03.168Z,960.35
2022-11-17T04:20:03.276Z,960.35
2022-11-17T04:21:03.381Z,960.27
2022-11-17T04:22:03.335Z,960.32
2022-11-17T04:23:03.419Z,960.38
2022-11-17T04:24:03.451Z,960.35
2022-11-17T04:25:03.470Z,960.44
2022-11-17T04:26:03.411Z,960.35
2022-11-17T04:27:03.528Z,960.32
2022-11-17T04:28:03.792Z,960.35
2022-11-17T04:29:03.803Z,960.41
2022-11-17T04:30:03.760Z,960.38
2022-11-17T04:31:03.863Z,960.35
2022-11-17T04:32:03.892Z,960.38
2022-11-17T04:33:03.879Z,960.41
2022-11-17T04:34:03.899Z,960.07
2022-11-17T04:35:02.917Z,960.19
2022-11-17T04:36:03.061Z,960.27
2022-11-17T04:37:08.533Z,960.21
2022-11-17T04:38:03.319Z,960.16
2022-11-17T04:39:03.214Z,960.21
2022-11-17T04:40:03.305Z,960.07
2022-11-17T04:41:03.264Z,960.07
2022-11-17T04:42:03.344Z,960.13
2022-11-17T04:43:03.471Z,960.07
2022-11-17T04:44:03.436Z,960.16
2022-11-17T04:45:03.484Z,960.10
2022-11-17T04:46:03.482Z,960.13
2022-11-17T04:47:03.492Z,959.93
2022-11-17T04:48:03.680Z,960.24
2022-11-17T04:49:03.757Z,959.96
2022-11-17T04:50:03.844Z,959.99
2022-11-17T04:51:03.852Z,959.90
2022-11-17T04:52:03.035Z,960.01
2022-11-17T04:53:03.012Z,959.90
2022-11-17T04:54:03.066Z,959.90
2022-11-17T04:55:03.698Z,959.82
2022-11-17T04:56:03.190Z,959.90
2022-11-17T04:57:03.198Z,959.79
2022-11-17T04:58:03.165Z,959.93
2022-11-17T04:59:03.918Z,959.84
2022-11-17T05:00:03.875Z,959.87
2022-11-17T05:01:03.862Z,959.87
2022-11-17T05:02:06.527Z,959.93
2022-11-17T05:03:03.106Z,959.79
2022-11-17T05:04:03.100Z,959.73
2022-11-17T05:05:03.350Z,959.76
2022-11-17T05:06:03.426Z,959.76
2022-11-17T05:07:03.786Z,959.70
2022-11-17T05:08:03.658Z,959.73
2022-11-17T05:09:03.693Z,959.70
2022-11-17T05:10:03.690Z,959.65
2022-11-17T05:11:03.858Z,959.59
2022-11-17T05:12:03.717Z,959.54
2022-11-17T05:13:03.719Z,959.57
2022-11-17T05:14:03.701Z,959.48
2022-11-17T05:15:03.707Z,959.56
2022-11-17T05:16:03.707Z,959.73
2022-11-17T05:17:11.126Z,959.54
2022-11-17T05:18:03.986Z,959.70
2022-11-17T05:19:02.940Z,959.53
2022-11-17T05:20:02.961Z,959.56
2022-11-17T05:21:02.956Z,959.39
2022-11-17T05:22:02.956Z,959.31
2022-11-17T05:23:07.218Z,959.39
2022-11-17T05:24:03.044Z,959.39
2022-11-17T05:25:03.666Z,959.33
2022-11-17T05:26:03.462Z,959.36
2022-11-17T05:27:03.653Z,959.42
2022-11-17T05:28:03.638Z,959.33
2022-11-17T05:29:03.532Z,959.33
2022-11-17T05:30:03.658Z,959.33
2022-11-17T05:31:03.856Z,959.39
2022-11-17T05:32:03.867Z,959.41
2022-11-17T05:33:02.966Z,959.39
2022-11-17T05:34:02.986Z,959.25
2022-11-17T05:35:03.017Z,959.35
2022-11-17T05:36:03.047Z,959.30
2022-11-17T05:37:03.056Z,959.21
2022-11-17T05:38:03.053Z,959.33
2022-11-17T05:39:03.132Z,959.27
2022-11-17T05:40:03.161Z,959.33
2022-11-17T05:41:03.156Z,959.18
2022-11-17T05:42:03.292Z,959.30
2022-11-17T05:43:03.281Z,959.21
2022-11-17T05:44:03.336Z,959.11
2022-11-17T05:45:03.316Z,959.16
2022-11-17T05:46:03.218Z,959.16
2022-11-17T05:47:03.387Z,959.21
2022-11-17T05:48:03.428Z,959.08
2022-11-17T05:49:03.407Z,959.11
2022-11-17T05:50:03.561Z,959.10
2022-11-17T05:51:03.487Z,959.08
2022-11-17T05:52:03.664Z,959.18
2022-11-17T05:53:03.278Z,959.26
2022-11-17T05:54:03.230Z,959.29
2022-11-17T05:55:03.187Z,959.13
2022-11-17T05:56:03.240Z,959.37
2022-11-17T05:57:03.210Z,959.17
2022-11-17T05:58:03.356Z,959.28
2022-11-17T05:59:03.277Z,959.28
2022-11-17T06:00:03.237Z,959.28
2022-11-17T06:01:03.343Z,959.23
2022-11-17T06:02:03.332Z,959.31
2022-11-17T06:03:03.485Z,959.34
2022-11-17T06:04:03.752Z,959.37
2022-11-17T06:05:03.448Z,959.51
2022-11-17T06:06:03.719Z,959.34
2022-11-17T06:07:03.809Z,959.45
2022-11-17T06:08:03.883Z,959.51
2022-11-17T06:09:03.032Z,959.53
2022-11-17T06:10:02.948Z,959.31
2022-11-17T06:11:03.418Z,959.45
2022-11-17T06:12:06.686Z,959.45
2022-11-17T06:13:03.559Z,959.19
2022-11-17T06:14:03.512Z,959.25
2022-11-17T06:15:03.120Z,959.25
2022-11-17T06:16:03.117Z,959.22
2022-11-17T06:17:03.132Z,959.25
2022-11-17T06:18:03.183Z,959.30
2022-11-17T06:19:03.289Z,959.45
2022-11-17T06:20:03.315Z,959.53
2022-11-17T06:21:03.382Z,959.39
2022-11-17T06:22:14.018Z,959.45
2022-11-17T06:23:03.580Z,959.48
2022-11-17T06:24:03.609Z,959.39
2022-11-17T06:25:03.684Z,959.42
2022-11-17T06:26:03.673Z,959.34
2022-11-17T06:27:03.801Z,959.40
2022-11-17T06:28:03.567Z,959.57
2022-11-17T06:29:03.569Z,959.54
2022-11-17T06:30:03.617Z,959.40
2022-11-17T06:31:03.556Z,959.40
2022-11-17T06:32:03.594Z,959.52
2022-11-17T06:33:03.646Z,959.49
2022-11-17T06:34:03.735Z,959.71
2022-11-17T06:35:03.841Z,959.46
2022-11-17T06:36:02.920Z,959.49
2022-11-17T06:37:02.969Z,959.49
2022-11-17T06:38:03.050Z,959.49
2022-11-17T06:39:03.071Z,959.60
2022-11-17T06:40:03.205Z,959.66
2022-11-17T06:41:12.267Z,959.71
2022-11-17T06:42:03.635Z,959.58
2022-11-17T06:43:03.621Z,959.71
2022-11-17T06:44:03.724Z,959.55
2022-11-17T06:45:03.737Z,959.61
2022-11-17T06:46:03.701Z,959.61
2022-11-17T06:47:03.763Z,959.55
2022-11-17T06:48:03.839Z,959.58
2022-11-17T06:49:03.914Z,959.52
2022-11-17T06:50:02.941Z,959.50
2022-11-17T06:51:03.918Z,959.47
2022-11-17T06:52:03.019Z,959.44
2022-11-17T06:53:03.144Z,959.44
2022-11-17T06:54:03.193Z,959.50
2022-11-17T06:55:03.219Z,959.47
2022-11-17T06:56:03.255Z,959.50
2022-11-17T06:57:03.343Z,959.50
2022-11-17T06:58:03.271Z,959.41
2022-11-17T06:59:03.468Z,959.50
2022-11-17T07:00:03.613Z,959.47
2022-11-17T07:01:03.688Z,959.47
2022-11-17T07:02:03.601Z,959.74
2022-11-17T07:03:03.669Z,959.44
2022-11-17T07:04:03.630Z,959.44
2022-11-17T07:05:03.647Z,959.56
2022-11-17T07:06:03.701Z,959.61
2022-11-17T07:07:03.883Z,959.56
2022-11-17T07:08:02.930Z,959.59
2022-11-17T07:09:02.984Z,959.45
2022-11-17T07:10:03.092Z,959.50
2022-11-17T07:11:03.123Z,959.39
2022-11-17T07:12:03.136Z,959.50
2022-11-17T07:13:03.124Z,959.56
2022-11-17T07:14:03.164Z,959.36
2022-11-17T07:15:03.337Z,959.50
2022-11-17T07:16:03.354Z,959.34
2022-11-17T07:17:03.412Z,959.50
2022-11-17T07:18:03.428Z,959.34
2022-11-17T07:19:03.470Z,959.28
2022-11-17T07:20:03.394Z,959.34
2022-11-17T07:21:03.433Z,959.39
2022-11-17T07:22:03.539Z,959.25
2022-11-17T07:23:03.710Z,959.31
2022-11-17T07:24:03.922Z,959.31
2022-11-17T07:25:02.940Z,959.25
2022-11-17T07:26:02.945Z,959.22
2022-11-17T07:27:03.040Z,959.12
2022-11-17T07:28:02.979Z,959.15
2022-11-17T07:29:03.023Z,959.12
2022-11-17T07:30:03.019Z,959.06
2022-11-17T07:31:03.004Z,959.06
2022-11-17T07:32:03.191Z,959.16
2022-11-17T07:33:03.208Z,958.94
2022-11-17T07:34:03.362Z,959.03
2022-11-17T07:35:03.330Z,958.94
2022-11-17T07:36:03.436Z,959.05
2022-11-17T07:37:03.581Z,959.00
2022-11-17T07:38:03.785Z,959.05
2022-11-17T07:39:03.784Z,959.08
2022-11-17T07:40:03.732Z,958.91
2022-11-17T07:41:03.913Z,959.05
2022-11-17T07:42:03.824Z,959.00
2022-11-17T07:43:03.795Z,958.97
2022-11-17T07:44:03.868Z,958.88
2022-11-17T07:45:02.936Z,959.00
2022-11-17T07:46:03.068Z,958.88
2022-11-17T07:47:03.035Z,958.77
2022-11-17T07:48:03.186Z,958.94
2022-11-17T07:49:03.347Z,958.82
2022-11-17T07:50:03.553Z,959.08
2022-11-17T07:51:03.658Z,958.88
2022-11-17T07:52:03.748Z,958.96
2022-11-17T07:53:03.769Z,958.82
2022-11-17T07:54:03.764Z,959.02
2022-11-17T07:55:02.937Z,958.88
2022-11-17T07:56:02.976Z,958.93
2022-11-17T07:57:03.192Z,959.01
2022-11-17T07:58:03.223Z,959.23
2022-11-17T07:59:03.248Z,959.07
2022-11-17T08:00:03.166Z,958.95
2022-11-17T08:01:03.331Z,959.15
2022-11-17T08:02:03.291Z,959.04
2022-11-17T08:03:03.364Z,959.03
2022-11-17T08:04:03.611Z,959.06
2022-11-17T08:05:03.497Z,959.00
2022-11-17T08:06:03.658Z,959.11
2022-11-17T08:07:03.899Z,959.08
2022-11-17T08:08:03.878Z,959.00
2022-11-17T08:09:03.065Z,958.91
2022-11-17T08:10:03.084Z,958.94
2022-11-17T08:11:03.069Z,958.97
2022-11-17T08:12:03.012Z,958.99
2022-11-17T08:13:02.994Z,958.99
2022-11-17T08:14:03.011Z,958.93
2022-11-17T08:15:02.961Z,959.04
2022-11-17T08:16:02.982Z,958.96
2022-11-17T08:17:03.125Z,958.82
2022-11-17T08:18:03.249Z,959.01
2022-11-17T08:19:03.242Z,958.93
2022-11-17T08:20:03.265Z,958.93
2022-11-17T08:21:03.266Z,958.95
2022-11-17T08:22:03.184Z,959.04
2022-11-17T08:23:03.181Z,958.89
2022-11-17T08:24:03.101Z,958.86
2022-11-17T08:25:03.125Z,959.00
2022-11-17T08:26:03.180Z,958.83
2022-11-17T08:27:03.239Z,958.97
2022-11-17T08:28:03.225Z,959.00
2022-11-17T08:29:03.131Z,959.06
2022-11-17T08:30:03.226Z,959.06
2022-11-17T08:31:03.194Z,959.03
2022-11-17T08:32:03.312Z,959.11
2022-11-17T08:33:03.923Z,959.21
2022-11-17T08:34:03.973Z,959.05
2022-11-17T08:35:02.937Z,959.02
2022-11-17T08:36:02.988Z,959.05
2022-11-17T08:37:02.997Z,959.11
2022-11-17T08:38:03.127Z,959.08
2022-11-17T08:39:03.168Z,958.99
2022-11-17T08:40:03.232Z,959.13
2022-11-17T08:41:03.328Z,958.99
2022-11-17T08:42:03.645Z,959.02
2022-11-17T08:43:03.854Z,959.13
2022-11-17T08:44:03.117Z,958.91
2022-11-17T08:45:03.216Z,959.02
2022-11-17T08:46:03.313Z,958.93
2022-11-17T08:47:03.305Z,958.90
2022-11-17T08:48:03.398Z,958.96
2022-11-17T08:49:03.487Z,958.99
2022-11-17T08:50:03.372Z,958.93
2022-11-17T08:51:03.598Z,959.04
2022-11-17T08:52:03.688Z,958.98
2022-11-17T08:53:03.844Z,959.07
2022-11-17T08:54:02.914Z,959.17
2022-11-17T08:55:03.513Z,958.98
2022-11-17T08:56:03.508Z,958.98
2022-11-17T08:57:03.610Z,959.04
2022-11-17T08:58:03.681Z,959.12
2022-11-17T08:59:03.792Z,958.98
2022-11-17T09:00:03.840Z,959.04
2022-11-17T09:01:06.000Z,959.12
2022-11-17T09:02:03.919Z,959.01
2022-11-17T09:03:03.122Z,959.03
2022-11-17T09:04:03.265Z,959.03
2022-11-17T09:05:03.152Z,959.00
2022-11-17T09:06:03.303Z,959.06
2022-11-17T09:07:03.321Z,959.06
2022-11-17T09:08:56.282Z,959.14
2022-11-17T09:09:04.453Z,959.09
2022-11-17T09:10:03.461Z,959.11
2022-11-17T09:11:03.378Z,959.19
2022-11-17T09:12:03.408Z,959.14
2022-11-17T09:13:03.500Z,959.03
2022-11-17T09:14:03.511Z,959.11
2022-11-17T09:15:03.626Z,958.91
2022-11-17T09:16:03.619Z,959.03
2022-11-17T09:17:03.666Z,958.97
2022-11-17T09:18:03.717Z,959.08
2022-11-17T09:19:03.745Z,959.00
2022-11-17T09:20:03.878Z,959.11
2022-11-17T09:21:02.892Z,958.97
2022-11-17T09:22:02.965Z,958.96
2022-11-17T09:23:03.004Z,959.05
2022-11-17T09:24:03.056Z,958.91
2022-11-17T09:25:03.134Z,958.82
2022-11-17T09:26:03.121Z,958.79
2022-11-17T09:27:03.261Z,958.90
2022-11-17T09:28:03.241Z,958.68
2022-11-17T09:29:03.307Z,958.70
2022-11-17T09:30:03.193Z,958.82
2022-11-17T09:31:03.428Z,958.70
2022-11-17T09:32:03.543Z,958.73
2022-11-17T09:33:03.615Z,958.59
2022-11-17T09:34:06.359Z,958.67
2022-11-17T09:35:03.559Z,958.56
2022-11-17T09:36:03.767Z,958.53
2022-11-17T09:37:03.768Z,958.50
2022-11-17T09:38:03.904Z,958.53
2022-11-17T09:39:03.007Z,958.58
2022-11-17T09:40:03.325Z,958.44
2022-11-17T09:41:03.149Z,958.33
2022-11-17T09:42:03.022Z,958.35
2022-11-17T09:43:03.041Z,958.37
2022-11-17T09:44:03.075Z,958.34
2022-11-17T09:45:03.169Z,958.40
2022-11-17T09:46:07.950Z,958.51
2022-11-17T09:47:03.188Z,958.33
2022-11-17T09:48:40.982Z,958.25
2022-11-17T09:49:03.216Z,958.24
2022-11-17T09:50:03.182Z,958.24
2022-11-17T09:51:03.274Z,958.38
2022-11-17T09:52:03.385Z,958.27
2022-11-17T09:53:03.379Z,958.41
2022-11-17T09:54:03.516Z,958.49
2022-11-17T09:55:03.443Z,958.18
2022-11-17T09:56:03.657Z,958.32
2022-11-17T09:57:03.689Z,958.26
2022-11-17T09:58:03.592Z,958.52
2022-11-17T09:59:03.817Z,958.40
2022-11-17T10:00:03.814Z,958.29
2022-11-17T10:01:03.829Z,958.40
2022-11-17T10:02:03.048Z,958.23
2022-11-17T10:03:03.028Z,958.29
2022-11-17T10:04:03.075Z,958.21
2022-11-17T10:05:03.195Z,958.40
2022-11-17T10:06:03.362Z,958.23
2022-11-17T10:07:03.506Z,958.26
2022-11-17T10:08:03.382Z,958.15
2022-11-17T10:09:03.342Z,958.26
2022-11-17T10:10:03.415Z,958.26
2022-11-17T10:11:03.486Z,958.23
2022-11-17T10:12:03.480Z,958.28
2022-11-17T10:13:03.499Z,958.31
2022-11-17T10:14:03.672Z,958.34
2022-11-17T10:15:03.654Z,958.28
2022-11-17T10:16:03.811Z,958.39
2022-11-17T10:17:03.898Z,958.28
2022-11-17T10:18:03.886Z,958.19
2022-11-17T10:19:02.987Z,958.04
2022-11-17T10:20:02.981Z,958.23
2022-11-17T10:21:03.070Z,958.03
2022-11-17T10:22:03.096Z,958.19
2022-11-17T10:23:03.119Z,958.04
2022-11-17T10:24:03.055Z,958.12
2022-11-17T10:25:03.192Z,958.17
2022-11-17T10:26:03.182Z,957.94
2022-11-17T10:27:03.132Z,958.04
2022-11-17T10:28:03.216Z,958.09
2022-11-17T10:29:09.255Z,957.97
2022-11-17T10:30:03.332Z,958.11
2022-11-17T10:31:03.585Z,958.05
2022-11-17T10:32:03.372Z,957.99
2022-11-17T10:33:03.378Z,958.07
2022-11-17T10:34:03.499Z,958.10
2022-11-17T10:35:03.445Z,958.12
2022-11-17T10:36:03.574Z,958.09
2022-11-17T10:37:03.669Z,958.15
2022-11-17T10:38:03.659Z,958.10
2022-11-17T10:39:03.702Z,958.12
2022-11-17T10:40:03.856Z,958.21
2022-11-17T10:41:02.981Z,958.18
2022-11-17T10:42:03.047Z,958.15
2022-11-17T10:43:03.090Z,958.12
2022-11-17T10:44:03.118Z,958.06
2022-11-17T10:45:03.101Z,958.17
2022-11-17T10:46:03.256Z,958.20
2022-11-17T10:47:03.618Z,957.97
2022-11-17T10:48:03.318Z,957.94
2022-11-17T10:49:03.405Z,957.91
2022-11-17T10:50:03.537Z,958.04
2022-11-17T10:51:03.559Z,957.93
2022-11-17T10:52:03.616Z,957.95
2022-11-17T10:53:05.763Z,958.00
2022-11-17T10:54:02.904Z,958.03
2022-11-17T10:55:02.945Z,957.97
2022-11-17T10:56:02.925Z,957.96
2022-11-17T10:57:03.052Z,958.05
2022-11-17T10:58:03.140Z,958.21
2022-11-17T10:59:03.225Z,958.10
2022-11-17T11:00:03.350Z,958.09
2022-11-17T11:01:03.626Z,958.06
2022-11-17T11:02:03.638Z,958.20
2022-11-17T11:03:03.628Z,958.29
2022-11-17T11:04:03.601Z,958.29
2022-11-17T11:05:03.270Z,958.26
2022-11-17T11:06:03.311Z,958.22
2022-11-17T11:07:03.540Z,958.31
2022-11-17T11:08:03.435Z,958.33
2022-11-17T11:09:03.525Z,958.33
2022-11-17T11:10:03.458Z,958.27
2022-11-17T11:11:03.519Z,958.36
2022-11-17T11:12:03.753Z,958.44
2022-11-17T11:13:03.774Z,958.27
2022-11-17T11:14:03.940Z,958.24
2022-11-17T11:15:02.994Z,958.27
2022-11-17T11:16:02.965Z,958.21
2022-11-17T11:17:02.966Z,958.33
2022-11-17T11:18:03.131Z,958.25
2022-11-17T11:19:03.117Z,958.25
2022-11-17T11:20:03.218Z,958.34
2022-11-17T11:21:03.465Z,958.22
2022-11-17T11:22:03.415Z,958.26
2022-11-17T11:23:03.420Z,958.15
2022-11-17T11:24:03.364Z,958.15
2022-11-17T11:25:03.405Z,958.01
2022-11-17T11:26:03.396Z,958.06
2022-11-17T11:27:03.357Z,958.18
2022-11-17T11:28:03.415Z,958.22
2022-11-17T11:29:03.506Z,958.07
2022-11-17T11:30:03.535Z,958.05
2022-11-17T11:31:03.614Z,958.05
2022-11-17T11:32:03.717Z,957.99
2022-11-17T11:33:03.755Z,958.10
2022-11-17T11:34:03.832Z,957.96
2022-11-17T11:35:03.789Z,957.85
2022-11-17T11:36:03.847Z,957.85
2022-11-17T11:37:03.843Z,957.82
2022-11-17T11:38:03.925Z,957.93
2022-11-17T11:39:03.058Z,957.88
2022-11-17T11:40:03.005Z,957.82
2022-11-17T11:41:03.119Z,957.87
2022-11-17T11:42:08.485Z,957.85
2022-11-17T11:43:03.029Z,957.84
2022-11-17T11:44:03.072Z,957.79
2022-11-17T11:45:03.161Z,957.87
2022-11-17T11:46:03.104Z,957.78
2022-11-17T11:47:03.163Z,957.81
2022-11-17T11:48:03.157Z,957.87
2022-11-17T11:49:03.297Z,957.93
2022-11-17T11:50:03.506Z,957.93
2022-11-17T11:51:03.378Z,957.74
2022-11-17T11:52:03.450Z,957.84
2022-11-17T11:53:03.507Z,957.90
2022-11-17T11:54:03.534Z,957.88
2022-11-17T11:55:03.650Z,957.88
2022-11-17T11:56:03.586Z,957.96
2022-11-17T11:57:03.519Z,957.94
2022-11-17T11:58:03.700Z,958.03
2022-11-17T11:59:03.695Z,958.11
2022-11-17T12:00:05.180Z,958.08
2022-11-17T12:01:02.978Z,958.11
2022-11-17T12:02:03.178Z,958.09
2022-11-17T12:03:03.255Z,958.17
2022-11-17T12:04:03.202Z,958.37
2022-11-17T12:05:03.257Z,958.23
2022-11-17T12:06:03.242Z,958.12
2022-11-17T12:07:03.345Z,958.21
2022-11-17T12:08:11.058Z,958.15
2022-11-17T12:09:03.299Z,958.12
2022-11-17T12:10:03.407Z,958.04
2022-11-17T12:11:03.355Z,958.18
2022-11-17T12:12:03.573Z,958.10
2022-11-17T12:13:03.521Z,958.01
2022-11-17T12:14:03.550Z,958.04
2022-11-17T12:15:04.047Z,958.10
2022-11-17T12:16:03.719Z,958.07
2022-11-17T12:17:03.818Z,957.79
2022-11-17T12:18:03.739Z,957.96
2022-11-17T12:19:03.738Z,957.82
2022-11-17T12:20:11.290Z,957.85
2022-11-17T12:21:03.010Z,957.94
2022-11-17T12:22:02.979Z,957.88
2022-11-17T12:23:02.972Z,957.94
2022-11-17T12:24:03.055Z,957.94
2022-11-17T12:25:03.028Z,958.03
2022-11-17T12:26:03.096Z,958.03
2022-11-17T12:27:03.023Z,957.78
2022-11-17T12:28:03.066Z,957.92